createdAt,value
2017-05-11T00:00:17.981Z,999.13
2017-05-11T00:00:58.887Z,999.13
2017-05-11T00:01:39.621Z,999.14
2017-05-11T00:02:20.345Z,999.15
2017-05-11T00:03:01.057Z,999.17
2017-05-11T00:03:41.779Z,999.15
2017-05-11T00:04:22.594Z,999.16
2017-05-11T00:05:03.355Z,999.16
2017-05-11T00:05:43.991Z,999.14
2017-05-11T00:06:24.658Z,999.13
2017-05-11T00:07:05.358Z,999.13
2017-05-11T00:07:46.104Z,999.13
2017-05-11T00:08:26.766Z,999.14
2017-05-11T00:09:07.477Z,999.1
2017-05-11T00:09:48.168Z,999.06
2017-05-11T00:10:28.915Z,999.06
2017-05-11T00:11:10.686Z,999.03
2017-05-11T00:11:51.425Z,999.02
2017-05-11T00:12:32.181Z,999.01
2017-05-11T00:13:12.753Z,999.01
2017-05-11T00:13:53.457Z,998.97
2017-05-11T00:14:34.198Z,998.97
2017-05-11T00:15:14.870Z,998.98
2017-05-11T00:15:55.643Z,998.99
2017-05-11T00:16:36.358Z,998.97
2017-05-11T00:17:17.088Z,998.95
2017-05-11T00:17:57.812Z,998.96
2017-05-11T00:18:38.520Z,998.95
2017-05-11T00:19:19.174Z,998.96
2017-05-11T00:19:59.799Z,998.95
2017-05-11T00:20:40.539Z,998.98
2017-05-11T00:21:21.253Z,998.95
2017-05-11T00:22:01.863Z,998.96
2017-05-11T00:22:42.536Z,998.93
2017-05-11T00:23:23.358Z,998.9
2017-05-11T00:24:05.004Z,998.88
2017-05-11T00:24:45.649Z,998.89
2017-05-11T00:25:26.356Z,998.88
2017-05-11T00:26:07.094Z,998.89
2017-05-11T00:26:47.810Z,998.87
2017-05-11T00:27:28.614Z,998.88
2017-05-11T00:28:09.357Z,998.84
2017-05-11T00:28:50.261Z,998.88
2017-05-11T00:29:30.918Z,998.82
2017-05-11T00:30:12.599Z,998.83
2017-05-11T00:30:53.254Z,998.84
2017-05-11T00:31:33.897Z,998.8
2017-05-11T00:32:14.533Z,998.77
2017-05-11T00:32:55.189Z,998.78
2017-05-11T00:33:35.847Z,998.73
2017-05-11T00:34:16.414Z,998.73
2017-05-11T00:34:57.060Z,998.74
2017-05-11T00:35:37.701Z,998.7
2017-05-11T00:36:18.314Z,998.72
2017-05-11T00:36:58.889Z,998.68
2017-05-11T00:37:39.574Z,998.68
2017-05-11T00:38:20.222Z,998.66
2017-05-11T00:39:00.868Z,998.66
2017-05-11T00:39:41.524Z,998.66
2017-05-11T00:40:22.173Z,998.65
2017-05-11T00:41:02.830Z,998.63
2017-05-11T00:41:43.481Z,998.6
2017-05-11T00:42:24.136Z,998.61
2017-05-11T00:43:04.790Z,998.6
2017-05-11T00:43:45.444Z,998.59
2017-05-11T00:44:26.094Z,998.6
2017-05-11T00:45:06.848Z,998.57
2017-05-11T00:45:47.501Z,998.58
2017-05-11T00:46:28.154Z,998.55
2017-05-11T00:47:08.808Z,998.56
2017-05-11T00:47:49.399Z,998.52
2017-05-11T00:48:30.118Z,998.51
2017-05-11T00:49:10.792Z,998.52
2017-05-11T00:49:51.422Z,998.52
2017-05-11T00:50:32.118Z,998.51
2017-05-11T00:51:12.805Z,998.48
2017-05-11T00:51:53.521Z,998.49
2017-05-11T00:52:34.139Z,998.5
2017-05-11T00:53:14.767Z,998.53
2017-05-11T00:53:55.440Z,998.52
2017-05-11T00:54:37.146Z,998.5
2017-05-11T00:55:17.774Z,998.5
2017-05-11T00:55:58.345Z,998.49
2017-05-11T00:56:39.108Z,998.48
2017-05-11T00:57:19.753Z,998.47
2017-05-11T00:58:00.384Z,998.46
2017-05-11T00:58:41.024Z,998.46
2017-05-11T00:59:21.690Z,998.47
2017-05-11T01:00:02.332Z,998.45
2017-05-11T01:00:44.045Z,998.41
2017-05-11T01:01:24.671Z,998.4
2017-05-11T01:02:05.323Z,998.39
2017-05-11T01:02:46.003Z,998.33
2017-05-11T01:03:27.647Z,998.33
2017-05-11T01:04:08.301Z,998.32
2017-05-11T01:04:48.962Z,998.29
2017-05-11T01:05:29.612Z,998.29
2017-05-11T01:06:10.264Z,998.29
2017-05-11T01:06:50.912Z,998.29
2017-05-11T01:07:31.572Z,998.3
2017-05-11T01:08:12.214Z,998.29
2017-05-11T01:08:52.877Z,998.27
2017-05-11T01:09:33.533Z,998.24
2017-05-11T01:10:14.183Z,998.26
2017-05-11T01:10:54.837Z,998.25
2017-05-11T01:11:35.484Z,998.21
2017-05-11T01:12:16.136Z,998.24
2017-05-11T01:12:56.705Z,998.21
2017-05-11T01:13:37.343Z,998.2
2017-05-11T01:14:18.002Z,998.22
2017-05-11T01:14:58.582Z,998.19
2017-05-11T01:15:39.214Z,998.19
2017-05-11T01:16:19.854Z,998.2
2017-05-11T01:17:00.434Z,998.18
2017-05-11T01:17:41.059Z,998.19
2017-05-11T01:18:21.709Z,998.18
2017-05-11T01:19:03.384Z,998.15
2017-05-11T01:19:44.036Z,998.14
2017-05-11T01:20:24.692Z,998.16
2017-05-11T01:21:05.352Z,998.12
2017-05-11T01:21:46.005Z,998.11
2017-05-11T01:22:26.655Z,998.1
2017-05-11T01:23:07.300Z,998.08
2017-05-11T01:23:47.959Z,998.09
2017-05-11T01:24:28.605Z,998.04
2017-05-11T01:25:09.263Z,998.04
2017-05-11T01:25:50.944Z,997.99
2017-05-11T01:26:31.584Z,998.03
2017-05-11T01:27:12.250Z,998.03
2017-05-11T01:27:52.903Z,998.01
2017-05-11T01:28:33.503Z,997.98
2017-05-11T01:29:14.170Z,998
2017-05-11T01:29:54.746Z,997.97
2017-05-11T01:30:35.417Z,997.95
2017-05-11T01:31:15.986Z,997.94
2017-05-11T01:31:56.677Z,997.97
2017-05-11T01:32:37.274Z,997.95
2017-05-11T01:33:17.913Z,997.94
2017-05-11T01:33:58.574Z,997.89
2017-05-11T01:34:39.220Z,997.89
2017-05-11T01:35:19.873Z,997.88
2017-05-11T01:36:00.532Z,997.89
2017-05-11T01:36:41.190Z,997.91
2017-05-11T01:37:21.851Z,997.87
2017-05-11T01:38:02.498Z,997.88
2017-05-11T01:38:43.143Z,997.89
2017-05-11T01:39:23.801Z,997.89
2017-05-11T01:40:04.453Z,997.89
2017-05-11T01:40:45.108Z,997.83
2017-05-11T01:41:25.757Z,997.88
2017-05-11T03:13:28.919Z,996.75
2017-05-11T03:14:09.591Z,996.75
2017-05-11T03:14:51.248Z,996.73
2017-05-11T03:15:32.927Z,996.72
2017-05-11T03:16:13.583Z,996.71
2017-05-11T03:16:54.230Z,996.72
2017-05-11T03:17:34.893Z,996.69
2017-05-11T03:18:15.543Z,996.7
2017-05-11T03:18:56.191Z,996.69
2017-05-11T03:19:36.844Z,996.74
2017-05-11T03:20:17.495Z,996.71
2017-05-11T03:20:58.149Z,996.71
2017-05-11T03:21:38.805Z,996.72
2017-05-11T03:22:19.463Z,996.68
2017-05-11T03:23:00.111Z,996.72
2017-05-11T03:23:40.838Z,996.7
2017-05-11T03:24:21.499Z,996.67
2017-05-11T03:25:02.059Z,996.7
2017-05-11T03:25:42.721Z,996.69
2017-05-11T03:26:23.269Z,996.68
2017-05-11T03:27:03.894Z,996.65
2017-05-11T03:27:44.582Z,996.64
2017-05-11T03:28:25.235Z,996.62
2017-05-11T03:29:05.788Z,996.59
2017-05-11T03:29:46.430Z,996.59
2017-05-11T03:30:27.086Z,996.59
2017-05-11T03:31:07.654Z,996.6
2017-05-11T03:31:48.329Z,996.58
2017-05-11T03:32:29.969Z,996.56
2017-05-11T03:33:10.598Z,996.58
2017-05-11T03:33:51.165Z,996.56
2017-05-11T03:34:31.837Z,996.61
2017-05-11T03:35:12.414Z,996.57
2017-05-11T03:35:53.098Z,996.57
2017-05-11T03:36:33.777Z,996.58
2017-05-11T03:37:14.447Z,996.59
2017-05-11T03:37:54.988Z,996.59
2017-05-11T03:38:35.644Z,996.56
2017-05-11T03:39:16.286Z,996.53
2017-05-11T03:39:56.944Z,996.54
2017-05-11T03:40:37.526Z,996.58
2017-05-11T03:41:18.190Z,996.56
2017-05-11T03:41:58.850Z,996.51
2017-05-11T03:42:39.467Z,996.52
2017-05-11T03:43:20.080Z,996.53
2017-05-11T03:44:00.800Z,996.55
2017-05-11T03:44:41.399Z,996.54
2017-05-11T03:45:22.081Z,996.5
2017-05-11T03:46:02.707Z,996.51
2017-05-11T03:46:43.341Z,996.51
2017-05-11T03:47:24.035Z,996.55
2017-05-11T03:48:04.666Z,996.48
2017-05-11T03:48:45.301Z,996.47
2017-05-11T03:49:25.967Z,996.49
2017-05-11T03:50:06.622Z,996.47
2017-05-11T03:50:47.268Z,996.45
2017-05-11T03:51:27.885Z,996.5
2017-05-11T03:52:08.574Z,996.48
2017-05-11T03:52:49.243Z,996.47
2017-05-11T03:53:29.903Z,996.51
2017-05-11T03:54:13.219Z,996.46
2017-05-11T03:54:53.883Z,996.5
2017-05-11T03:55:34.523Z,996.5
2017-05-11T03:56:15.177Z,996.47
2017-05-11T03:56:55.871Z,996.45
2017-05-11T03:57:36.483Z,996.5
2017-05-11T03:58:17.156Z,996.44
2017-05-11T03:58:57.781Z,996.47
2017-05-11T03:59:38.454Z,996.45
2017-05-11T04:00:19.105Z,996.42
2017-05-11T04:00:59.687Z,996.42
2017-05-11T04:01:40.323Z,996.42
2017-05-11T04:02:20.970Z,996.37
2017-05-11T04:03:01.595Z,996.41
2017-05-11T04:03:42.250Z,996.43
2017-05-11T04:04:22.911Z,996.4
2017-05-11T04:05:03.564Z,996.39
2017-05-11T04:05:44.213Z,996.37
2017-05-11T04:06:24.867Z,996.37
2017-05-11T04:07:05.545Z,996.36
2017-05-11T04:07:46.174Z,996.37
2017-05-11T04:08:26.756Z,996.37
2017-05-11T04:09:07.346Z,996.35
2017-05-11T04:09:48.970Z,996.33
2017-05-11T04:10:29.602Z,996.32
2017-05-11T04:11:10.193Z,996.31
2017-05-11T04:11:50.775Z,996.32
2017-05-11T04:12:32.399Z,996.27
2017-05-11T04:13:13.049Z,996.28
2017-05-11T04:13:54.629Z,996.28
2017-05-11T04:14:35.275Z,996.3
2017-05-11T04:15:15.930Z,996.31
2017-05-11T04:15:56.583Z,996.29
2017-05-11T04:16:37.226Z,996.3
2017-05-11T04:17:17.909Z,996.33
2017-05-11T04:17:59.563Z,996.33
2017-05-11T04:18:40.236Z,996.3
2017-05-11T04:19:20.877Z,996.3
2017-05-11T04:20:01.517Z,996.3
2017-05-11T04:20:42.187Z,996.26
2017-05-11T04:55:12.498Z,996.07
2017-05-11T04:55:53.057Z,996.05
2017-05-11T04:56:33.686Z,996.08
2017-05-11T04:57:14.372Z,996.05
2017-05-11T04:57:54.926Z,996.06
2017-05-11T04:58:35.534Z,996.04
2017-05-11T04:59:17.217Z,996.06
2017-05-11T04:59:57.814Z,996.01
2017-05-11T05:00:40.462Z,996
2017-05-11T05:01:21.121Z,996.02
2017-05-11T05:02:01.777Z,996.03
2017-05-11T05:02:42.366Z,995.96
2017-05-11T05:03:23.039Z,996
2017-05-11T05:04:04.661Z,995.98
2017-05-11T05:04:45.334Z,996.04
2017-05-11T05:05:28.030Z,996.04
2017-05-11T05:06:08.674Z,996.01
2017-05-11T05:06:49.332Z,996.05
2017-05-11T05:07:29.988Z,996.04
2017-05-11T05:08:10.640Z,996.01
2017-05-11T05:08:51.283Z,996.03
2017-05-11T05:09:32.242Z,995.98
2017-05-11T05:10:13.910Z,995.96
2017-05-11T05:10:54.565Z,995.97
2017-05-11T05:11:35.132Z,995.95
2017-05-11T05:12:15.787Z,996.01
2017-05-11T05:12:56.463Z,995.96
2017-05-11T05:13:37.060Z,995.97
2017-05-11T05:14:17.743Z,995.94
2017-05-11T05:15:00.417Z,995.98
2017-05-11T05:15:41.105Z,995.97
2017-05-11T05:16:22.790Z,995.96
2017-05-11T05:17:03.408Z,995.98
2017-05-11T05:17:44.107Z,995.93
2017-05-11T05:18:24.712Z,995.94
2017-05-11T05:19:05.369Z,995.95
2017-05-11T05:19:48.130Z,995.94
2017-05-11T05:20:28.842Z,995.93
2017-05-11T05:21:11.582Z,995.92
2017-05-11T05:21:52.192Z,995.91
2017-05-11T05:22:37.658Z,995.94
2017-05-11T05:23:18.314Z,995.93
2017-05-11T05:23:58.904Z,995.92
2017-05-11T05:24:39.559Z,995.95
2017-05-11T05:25:24.974Z,995.91
2017-05-11T05:26:05.635Z,995.91
2017-05-11T05:26:46.212Z,995.9
2017-05-11T05:27:26.856Z,995.92
2017-05-11T05:28:08.562Z,995.89
2017-05-11T05:28:49.263Z,995.91
2017-05-11T05:29:31.041Z,995.91
2017-05-11T05:30:12.732Z,995.9
2017-05-11T05:30:54.441Z,995.9
2017-05-11T05:31:35.168Z,995.87
2017-05-11T05:32:15.849Z,995.94
2017-05-11T05:32:58.535Z,995.88
2017-05-11T05:33:39.170Z,995.92
2017-05-11T05:34:19.791Z,995.88
2017-05-11T05:35:01.495Z,995.88
2017-05-11T05:35:42.144Z,995.87
2017-05-11T05:36:22.729Z,995.89
2017-05-11T05:37:03.437Z,995.89
2017-05-11T05:37:45.206Z,995.89
2017-05-11T05:38:27.859Z,995.9
2017-05-11T05:39:08.594Z,995.91
2017-05-11T05:39:50.271Z,995.89
2017-05-11T05:40:32.967Z,995.95
2017-05-11T05:41:13.712Z,995.93
2017-05-11T05:41:56.400Z,995.93
2017-05-11T05:42:42.742Z,995.89
2017-05-11T05:43:24.358Z,995.92
2017-05-11T05:44:07.100Z,995.86
2017-05-11T05:44:48.844Z,995.87
2017-05-11T05:45:31.646Z,995.87
2017-05-11T05:46:14.464Z,995.87
2017-05-11T05:46:55.186Z,995.86
2017-05-11T05:47:35.949Z,995.85
2017-05-11T05:48:16.691Z,995.87
2017-05-11T05:48:57.432Z,995.85
2017-05-11T05:49:38.302Z,995.85
2017-05-11T05:50:19.082Z,995.85
2017-05-11T05:51:00.748Z,995.83
2017-05-11T05:51:41.478Z,995.84
2017-05-11T05:52:23.279Z,995.85
2017-05-11T05:53:04.023Z,995.85
2017-05-11T05:53:44.640Z,995.86
2017-05-11T05:54:26.421Z,995.87
2017-05-11T05:55:08.189Z,995.86
2017-05-11T05:55:50.849Z,995.81
2017-05-11T05:56:31.562Z,995.83
2017-05-11T05:57:12.252Z,995.78
2017-05-11T05:57:53.086Z,995.81
2017-05-11T05:58:33.855Z,995.82
2017-05-11T05:59:14.522Z,995.76
2017-05-11T05:59:55.315Z,995.83
2017-05-11T06:00:36.978Z,995.82
2017-05-11T06:01:17.693Z,995.8
2017-05-11T06:01:58.453Z,995.79
2017-05-11T06:02:40.135Z,995.8
2017-05-11T06:03:20.922Z,995.8
2017-05-11T06:04:01.782Z,995.83
2017-05-11T06:04:48.249Z,995.77
2017-05-11T06:05:30.037Z,995.81
2017-05-11T06:06:10.759Z,995.79
2017-05-11T06:06:51.522Z,995.8
2017-05-11T06:07:32.267Z,995.77
2017-05-11T06:08:12.936Z,995.78
2017-05-11T06:08:53.623Z,995.74
2017-05-11T06:09:35.392Z,995.76
2017-05-11T06:10:16.008Z,995.77
2017-05-11T06:10:56.722Z,995.75
2017-05-11T06:11:39.499Z,995.78
2017-05-11T06:12:20.113Z,995.75
2017-05-11T06:13:00.903Z,995.75
2017-05-11T06:13:41.543Z,995.72
2017-05-11T06:14:23.322Z,995.73
2017-05-11T06:15:10.021Z,995.68
2017-05-11T06:15:50.817Z,995.7
2017-05-11T06:16:32.495Z,995.7
2017-05-11T06:17:14.227Z,995.71
2017-05-11T06:17:55.916Z,995.7
2017-05-11T06:18:36.568Z,995.7
2017-05-11T06:19:17.310Z,995.7
2017-05-11T06:19:58.011Z,995.69
2017-05-11T06:20:38.685Z,995.7
2017-05-11T06:21:20.566Z,995.68
2017-05-11T06:22:01.238Z,995.67
2017-05-11T06:22:41.881Z,995.68
2017-05-11T06:23:22.560Z,995.68
2017-05-11T06:24:04.335Z,995.69
2017-05-11T06:24:45.017Z,995.72
2017-05-11T06:25:25.789Z,995.7
2017-05-11T06:26:08.515Z,995.69
2017-05-11T06:26:50.269Z,995.65
2017-05-11T06:27:31.009Z,995.68
2017-05-11T06:28:11.634Z,995.7
2017-05-11T06:28:52.288Z,995.66
2017-05-11T06:29:33.039Z,995.66
2017-05-11T06:30:13.825Z,995.62
2017-05-11T06:30:54.570Z,995.66
2017-05-11T06:31:35.356Z,995.64
2017-05-11T06:32:16.101Z,995.65
2017-05-11T06:32:56.798Z,995.64
2017-05-11T06:33:37.528Z,995.65
2017-05-11T06:34:19.251Z,995.64
2017-05-11T06:34:59.916Z,995.64
2017-05-11T06:35:45.554Z,995.65
2017-05-11T06:36:26.272Z,995.67
2017-05-11T06:37:07.031Z,995.68
2017-05-11T06:37:47.679Z,995.73
2017-05-11T06:38:29.328Z,995.68
2017-05-11T06:39:11.341Z,995.67
2017-05-11T06:39:51.996Z,995.67
2017-05-11T06:40:32.687Z,995.69
2017-05-11T06:41:14.420Z,995.67
2017-05-11T06:41:55.115Z,995.7
2017-05-11T06:42:35.885Z,995.65
2017-05-11T06:43:16.575Z,995.62
2017-05-11T06:43:57.321Z,995.63
2017-05-11T06:44:38.027Z,995.66
2017-05-11T06:45:20.839Z,995.63
2017-05-11T06:46:01.474Z,995.65
2017-05-11T06:46:42.276Z,995.65
2017-05-11T06:47:22.894Z,995.68
2017-05-11T06:48:03.642Z,995.65
2017-05-11T06:48:44.230Z,995.6
2017-05-11T06:49:24.966Z,995.62
2017-05-11T06:50:05.683Z,995.63
2017-05-11T06:50:47.353Z,995.65
2017-05-11T06:51:28.052Z,995.63
2017-05-11T06:52:09.741Z,995.63
2017-05-11T06:52:50.499Z,995.6
2017-05-11T06:53:31.188Z,995.63
2017-05-11T06:54:11.843Z,995.58
2017-05-11T06:54:52.593Z,995.62
2017-05-11T06:55:33.264Z,995.64
2017-05-11T06:56:14.013Z,995.62
2017-05-11T06:56:55.856Z,995.59
2017-05-11T06:57:36.447Z,995.57
2017-05-11T06:58:18.118Z,995.52
2017-05-11T06:58:58.838Z,995.52
2017-05-11T06:59:40.563Z,995.52
2017-05-11T07:00:21.166Z,995.49
2017-05-11T07:01:02.952Z,995.48
2017-05-11T07:01:43.630Z,995.5
2017-05-11T07:02:24.370Z,995.49
2017-05-11T07:03:06.112Z,995.49
2017-05-11T07:03:46.816Z,995.49
2017-05-11T07:04:27.576Z,995.49
2017-05-11T07:05:10.257Z,995.49
2017-05-11T07:05:51.965Z,995.48
2017-05-11T07:06:34.740Z,995.46
2017-05-11T07:07:15.461Z,995.49
2017-05-11T07:07:56.364Z,995.46
2017-05-11T07:08:37.017Z,995.48
2017-05-11T07:09:22.727Z,995.48
2017-05-11T07:10:03.384Z,995.49
2017-05-11T07:10:44.168Z,995.48
2017-05-11T07:11:24.742Z,995.46
2017-05-11T07:12:05.418Z,995.5
2017-05-11T07:12:46.143Z,995.48
2017-05-11T07:13:26.861Z,995.5
2017-05-11T07:14:08.690Z,995.52
2017-05-11T07:14:49.397Z,995.5
2017-05-11T07:15:30.152Z,995.52
2017-05-11T07:16:10.837Z,995.51
2017-05-11T07:16:51.568Z,995.5
2017-05-11T07:17:33.241Z,995.48
2017-05-11T07:18:13.996Z,995.53
2017-05-11T07:18:54.641Z,995.5
2017-05-11T07:19:35.411Z,995.46
2017-05-11T07:20:16.163Z,995.48
2017-05-11T07:20:56.812Z,995.51
2017-05-11T07:21:37.573Z,995.48
2017-05-11T07:22:18.201Z,995.47
2017-05-11T07:22:58.871Z,995.44
2017-05-11T07:23:39.507Z,995.49
2017-05-11T07:24:20.276Z,995.48
2017-05-11T07:25:00.948Z,995.46
2017-05-11T07:25:41.582Z,995.44
2017-05-11T07:26:22.234Z,995.43
2017-05-11T07:27:03.999Z,995.42
2017-05-11T07:27:44.671Z,995.44
2017-05-11T07:28:25.298Z,995.4
2017-05-11T07:29:06.097Z,995.41
2017-05-11T07:29:46.847Z,995.45
2017-05-11T07:30:28.615Z,995.45
2017-05-11T07:31:09.374Z,995.42
2017-05-11T07:31:50.011Z,995.41
2017-05-11T07:32:30.665Z,995.41
2017-05-11T07:33:12.399Z,995.41
2017-05-11T07:33:54.144Z,995.37
2017-05-11T07:34:34.783Z,995.38
2017-05-11T07:35:15.460Z,995.36
2017-05-11T07:35:56.340Z,995.37
2017-05-11T07:36:37.051Z,995.35
2017-05-11T07:37:17.797Z,995.37
2017-05-11T07:37:59.480Z,995.34
2017-05-11T07:38:41.299Z,995.37
2017-05-11T07:39:21.930Z,995.3
2017-05-11T07:40:02.668Z,995.35
2017-05-11T07:40:44.410Z,995.32
2017-05-11T07:41:25.099Z,995.28
2017-05-11T07:42:05.736Z,995.29
2017-05-11T07:42:46.393Z,995.29
2017-05-11T07:43:27.076Z,995.26
2017-05-11T07:44:07.713Z,995.28
2017-05-11T07:44:48.416Z,995.25
2017-05-11T07:45:29.072Z,995.25
2017-05-11T07:46:09.806Z,995.19
2017-05-11T07:46:51.571Z,995.21
2017-05-11T07:47:32.204Z,995.19
2017-05-11T07:48:12.868Z,995.19
2017-05-11T07:48:58.030Z,995.18
2017-05-11T07:49:38.660Z,995.16
2017-05-11T07:50:19.345Z,995.13
2017-05-11T07:51:01.003Z,995.14
2017-05-11T07:51:41.815Z,995.13
2017-05-11T07:52:22.493Z,995.11
2017-05-11T07:53:03.253Z,995.11
2017-05-11T07:53:44.004Z,995.02
2017-05-11T07:54:24.690Z,995.04
2017-05-11T07:55:05.390Z,995.08
2017-05-11T07:55:46.168Z,995.03
2017-05-11T07:56:26.810Z,995.09
2017-05-11T07:57:07.525Z,995.05
2017-05-11T07:57:48.463Z,995.04
2017-05-11T07:58:29.369Z,995.02
2017-05-11T07:59:10.178Z,994.99
2017-05-11T07:59:51.949Z,994.99
2017-05-11T08:00:33.647Z,995.01
2017-05-11T08:01:19.284Z,994.95
2017-05-11T08:01:59.922Z,994.98
2017-05-11T08:02:40.586Z,994.97
2017-05-11T08:03:21.269Z,994.96
2017-05-11T08:04:01.880Z,994.91
2017-05-11T08:04:42.651Z,994.96
2017-05-11T08:05:23.299Z,994.91
2017-05-11T08:06:06.028Z,994.9
2017-05-11T08:06:51.273Z,994.92
2017-05-11T08:07:32.040Z,994.93
2017-05-11T08:08:12.802Z,994.88
2017-05-11T08:08:53.561Z,994.89
2017-05-11T08:09:34.180Z,994.86
2017-05-11T08:10:14.800Z,994.88
2017-05-11T08:10:55.547Z,994.85
2017-05-11T08:11:37.218Z,994.85
2017-05-11T08:12:17.973Z,994.87
2017-05-11T08:12:59.624Z,994.84
2017-05-11T08:13:40.356Z,994.85
2017-05-11T08:14:26.790Z,994.89
2017-05-11T08:15:07.528Z,994.84
2017-05-11T08:15:48.338Z,994.84
2017-05-11T08:16:29.011Z,994.89
2017-05-11T08:17:24.273Z,994.88
2017-05-11T08:18:04.910Z,994.87
2017-05-11T08:18:56.092Z,994.83
2017-05-11T08:19:49.483Z,994.84
2017-05-11T08:20:36.092Z,994.85
2017-05-11T08:21:16.827Z,994.87
2017-05-11T08:21:57.563Z,994.81
2017-05-11T08:22:38.223Z,994.83
2017-05-11T08:23:18.906Z,994.86
2017-05-11T08:23:59.672Z,994.85
2017-05-11T08:24:41.403Z,994.85
2017-05-11T08:25:22.060Z,994.84
2017-05-11T08:26:04.784Z,994.83
2017-05-11T08:26:46.409Z,994.89
2017-05-11T08:27:27.283Z,994.89
2017-05-11T08:28:07.946Z,994.89
2017-05-11T08:28:48.731Z,994.9
2017-05-11T08:29:29.353Z,994.89
2017-05-11T08:30:12.259Z,994.85
2017-05-11T08:30:52.968Z,994.84
2017-05-11T08:31:35.639Z,994.84
2017-05-11T08:32:16.405Z,994.86
2017-05-11T08:32:57.040Z,994.85
2017-05-11T08:33:39.809Z,994.85
2017-05-11T08:34:20.681Z,994.84
2017-05-11T08:35:02.492Z,994.84
2017-05-11T08:35:43.210Z,994.82
2017-05-11T08:36:24.980Z,994.84
2017-05-11T08:37:05.732Z,994.83
2017-05-11T08:37:47.410Z,994.8
2017-05-11T08:38:32.782Z,994.81
2017-05-11T08:39:13.447Z,994.78
2017-05-11T08:40:00.741Z,994.79
2017-05-11T08:40:41.459Z,994.79
2017-05-11T08:41:22.103Z,994.75
2017-05-11T08:42:02.756Z,994.78
2017-05-11T08:42:43.423Z,994.76
2017-05-11T08:43:30.726Z,994.75
2017-05-11T08:44:11.337Z,994.72
2017-05-11T08:44:52.071Z,994.73
2017-05-11T08:45:32.762Z,994.74
2017-05-11T08:46:13.590Z,994.72
2017-05-11T08:46:55.227Z,994.71
2017-05-11T08:47:36.058Z,994.71
2017-05-11T08:48:16.798Z,994.7
2017-05-11T08:48:57.505Z,994.66
2017-05-11T08:49:38.324Z,994.67
2017-05-11T08:50:18.924Z,994.69
2017-05-11T08:50:59.651Z,994.69
2017-05-11T08:51:40.933Z,994.69
2017-05-11T08:52:22.277Z,994.7
2017-05-11T08:53:03.048Z,994.66
2017-05-11T08:53:43.854Z,994.63
2017-05-11T08:54:24.571Z,994.61
2017-05-11T08:55:05.247Z,994.55
2017-05-11T08:55:46.073Z,994.55
2017-05-11T08:56:28.862Z,994.56
2017-05-11T08:57:09.664Z,994.55
2017-05-11T08:57:50.347Z,994.56
2017-05-11T08:58:33.256Z,994.56
2017-05-11T08:59:14.027Z,994.55
2017-05-11T08:59:54.799Z,994.54
2017-05-11T09:00:35.535Z,994.55
2017-05-11T09:01:17.318Z,994.57
2017-05-11T09:01:58.025Z,994.56
2017-05-11T09:02:38.770Z,994.54
2017-05-11T09:03:19.799Z,994.57
2017-05-11T09:04:02.978Z,994.52
2017-05-11T09:04:45.731Z,994.56
2017-05-11T09:05:26.410Z,994.55
2017-05-11T09:06:07.173Z,994.55
2017-05-11T09:06:47.861Z,994.56
2017-05-11T09:07:28.534Z,994.57
2017-05-11T09:08:09.264Z,994.54
2017-05-11T09:08:49.917Z,994.59
2017-05-11T09:09:30.655Z,994.57
2017-05-11T09:10:11.292Z,994.59
2017-05-11T09:10:52.060Z,994.54
2017-05-11T09:11:32.746Z,994.53
2017-05-11T09:12:13.455Z,994.56
2017-05-11T09:12:54.177Z,994.57
2017-05-11T09:13:34.857Z,994.53
2017-05-11T09:14:16.590Z,994.53
2017-05-11T09:14:59.319Z,994.51
2017-05-11T09:15:40.008Z,994.52
2017-05-11T09:16:20.763Z,994.56
2017-05-11T09:17:02.546Z,994.53
2017-05-11T09:17:43.296Z,994.48
2017-05-11T09:18:23.991Z,994.5
2017-05-11T09:19:04.703Z,994.5
2017-05-11T09:19:45.429Z,994.49
2017-05-11T09:20:26.161Z,994.48
2017-05-11T09:21:06.913Z,994.51
2017-05-11T09:21:48.626Z,994.48
2017-05-11T09:22:29.364Z,994.44
2017-05-11T09:23:10.017Z,994.42
2017-05-11T09:23:50.874Z,994.47
2017-05-11T09:24:33.690Z,994.44
2017-05-11T09:25:15.404Z,994.42
2017-05-11T09:25:56.007Z,994.44
2017-05-11T09:26:38.662Z,994.43
2017-05-11T09:27:19.305Z,994.41
2017-05-11T09:28:01.046Z,994.38
2017-05-11T09:28:41.749Z,994.41
2017-05-11T09:29:22.561Z,994.4
2017-05-11T09:30:03.187Z,994.42
2017-05-11T09:30:43.839Z,994.4
2017-05-11T09:31:24.611Z,994.41
2017-05-11T09:32:05.411Z,994.41
2017-05-11T09:32:46.098Z,994.4
2017-05-11T09:33:26.814Z,994.39
2017-05-11T09:36:39.437Z,994.39
2017-05-11T09:37:21.137Z,994.39
2017-05-11T09:38:01.759Z,994.38
2017-05-11T09:38:42.501Z,994.41
2017-05-11T09:39:24.202Z,994.4
2017-05-11T09:40:04.841Z,994.36
2017-05-11T09:40:45.563Z,994.38
2017-05-11T09:41:26.264Z,994.36
2017-05-11T09:42:06.947Z,994.38
2017-05-11T09:42:52.485Z,994.39
2017-05-11T09:43:33.105Z,994.37
2017-05-11T09:44:14.757Z,994.34
2017-05-11T09:44:55.442Z,994.35
2017-05-11T09:45:36.107Z,994.32
2017-05-11T09:46:17.976Z,994.32
2017-05-11T09:46:58.660Z,994.32
2017-05-11T09:47:40.363Z,994.3
2017-05-11T09:48:23.166Z,994.33
2017-05-11T09:49:03.823Z,994.3
2017-05-11T09:49:44.594Z,994.3
2017-05-11T09:50:25.345Z,994.24
2017-05-11T09:51:11.104Z,994.32
2017-05-11T09:51:51.710Z,994.27
2017-05-11T09:52:33.533Z,994.28
2017-05-11T09:53:14.382Z,994.22
2017-05-11T09:53:57.051Z,994.19
2017-05-11T09:54:38.830Z,994.2
2017-05-11T09:55:19.569Z,994.26
2017-05-11T09:56:02.305Z,994.17
2017-05-11T09:56:44.172Z,994.2
2017-05-11T09:57:24.908Z,994.15
2017-05-11T09:58:05.671Z,994.15
2017-05-11T09:58:46.320Z,994.14
2017-05-11T09:59:27.005Z,994.15
2017-05-11T10:00:07.753Z,994.14
2017-05-11T10:00:48.413Z,994.13
2017-05-11T10:01:29.140Z,994.12
2017-05-11T10:02:09.787Z,994.12
2017-05-11T10:02:50.448Z,994.1
2017-05-11T10:03:35.831Z,994.11
2017-05-11T10:04:17.480Z,994.11
2017-05-11T10:04:58.148Z,994.07
2017-05-11T10:05:38.900Z,994.09
2017-05-11T10:06:19.547Z,994.06
2017-05-11T10:07:00.210Z,994.09
2017-05-11T10:07:40.859Z,994.07
2017-05-11T10:08:21.524Z,994.02
2017-05-11T10:09:03.299Z,994.02
2017-05-11T10:09:43.945Z,994.06
2017-05-11T10:10:30.580Z,994.06
2017-05-11T10:11:12.229Z,994.09
2017-05-11T10:11:52.974Z,994.12
2017-05-11T10:12:34.670Z,994.06
2017-05-11T10:13:17.370Z,994.07
2017-05-11T10:13:57.995Z,994.06
2017-05-11T10:14:38.629Z,994.03
2017-05-11T10:15:19.288Z,993.96
2017-05-11T10:16:00.988Z,994.04
2017-05-11T10:16:41.665Z,994.03
2017-05-11T10:17:22.311Z,994.02
2017-05-11T10:18:03.004Z,993.95
2017-05-11T10:18:43.675Z,993.96
2017-05-11T10:19:24.398Z,993.91
2017-05-11T10:20:05.021Z,993.95
2017-05-11T10:20:45.698Z,993.91
2017-05-11T10:21:26.369Z,993.91
2017-05-11T10:22:07.019Z,993.89
2017-05-11T10:22:47.629Z,993.9
2017-05-11T10:23:28.291Z,993.91
2017-05-11T10:24:08.982Z,993.88
2017-05-11T10:24:49.635Z,993.86
2017-05-11T10:25:30.271Z,993.85
2017-05-11T10:26:10.920Z,993.82
2017-05-11T10:26:52.606Z,993.8
2017-05-11T10:27:33.251Z,993.81
2017-05-11T10:28:13.907Z,993.86
2017-05-11T10:28:54.561Z,993.78
2017-05-11T10:29:37.163Z,993.8
2017-05-11T10:30:17.751Z,993.76
2017-05-11T10:30:59.354Z,993.76
2017-05-11T10:31:39.929Z,993.79
2017-05-11T10:32:21.637Z,993.77
2017-05-11T10:33:02.244Z,993.7
2017-05-11T10:33:42.879Z,993.78
2017-05-11T10:34:23.605Z,993.75
2017-05-11T10:35:04.242Z,993.75
2017-05-11T10:35:44.796Z,993.71
2017-05-11T10:36:25.389Z,993.7
2017-05-11T10:37:06.082Z,993.69
2017-05-11T10:37:47.672Z,993.67
2017-05-11T10:38:28.247Z,993.7
2017-05-11T10:39:08.944Z,993.64
2017-05-11T10:39:49.633Z,993.61
2017-05-11T10:40:30.280Z,993.63
2017-05-11T10:41:10.921Z,993.63
2017-05-11T10:41:51.575Z,993.6
2017-05-11T10:42:33.271Z,993.6